Webcam Rollhalt 06

Webcam Rollhalt 24

 

Flugplatz - Wetter - Augsburg

[Quelle: ADDS]
METAR
EDMA 221650Z 09002KT 9999 SCT046 22/16 Q1010 =
EDMA 221400Z 2215/2224 VRB03KT CAVOK
TAF
EDMA 221400Z 2215/2224 VRB03KT CAVOK =
SR / SS: 05:05 / 17:15 UTC (Augsburg 2020-09-22)

Flugplatz - Wetter - Laupheim

[Quelle: ADDS]
METAR
ETHL 221620Z 19003KT 9999 FEW040 BKN120 22/13 Q1010 BLU BLU+ TEMPO BLU =
ETHL 221615Z 2217/2302 21005KT 9999 NSW FEW040 SCT120 TEMPO 2217/2220 24008KT 8000 -SHRA SCT040TCU PROB30 2217/2220 18008G18KT 4000 TSRA SCT010 BKN040CB
TAF
ETHL 221615Z 2217/2302 21005KT 9999 NSW FEW040 SCT120 TEMPO 2217/2220 24008KT 8000 -SHRA SCT040TCU PROB30 2217/2220 18008G18KT 4000 TSRA SCT010 BKN040CB =
SR / SS: 05:09 / 17:19 UTC (Laupheim 2020-09-22)

Flugplatz - Wetter - Memmingen

[Quelle: ADDS]
METAR
EDJA 221650Z 14004KT 110V170 CAVOK 19/15 Q1011 =
EDJA 221400Z 2215/2224 23004KT 9999 FEW030 PROB30 TEMPO 2215/2219 23015KT TSRA SCT030CB
TAF
EDJA 221400Z 2215/2224 23004KT 9999 FEW030 PROB30 TEMPO 2215/2219 23015KT TSRA SCT030CB =
SR / SS: 05:06 / 17:17 UTC (Memmingen 2020-09-22)

Flugplatz - Wetter - Neuburg/Donau

[Quelle: ADDS]
METAR
ETSN 221620Z 11003KT 9999 FEW040 BKN260 24/14 Q1010 BLU+ =
ETSN 221004Z 2211/2220 VRB03KT 9999 NSW FEW100 BY ETGL
TAF
ETSN 221004Z 2211/2220 VRB03KT 9999 NSW FEW100 BY ETGL =
SR / SS: 05:02 / 17:13 UTC (Neuburg 2020-09-22)

Flugplatz - Wetter - Stuttgart

[Quelle: ADDS]
METAR
EDDS 221650Z VRB02KT 9999 FEW060CB 22/11 Q1009 NOSIG =
EDDS 221100Z 2212/2312 VRB03KT CAVOK PROB30 TEMPO 2301/2306 22010KT -TSRA BKN040CB BECMG 2309/2311 24005KT
TAF
EDDS 221100Z 2212/2312 VRB03KT CAVOK PROB30 TEMPO 2301/2306 22010KT -TSRA BKN040CB BECMG 2309/2311 24005KT =
SR / SS: 05:10 / 17:21 UTC (Stuttgart 2020-09-22)

Flugplatz - Wetter - Niederstetten

[Quelle: ADDS]
METAR
ETHN 221620Z 19004KT 9999 FEW048CB SCT120 23/13 Q1010 BLU+ =
ETHN 221301Z 2215/2224 25005KT 9999 NSW FEW050
TAF
ETHN 221301Z 2215/2224 25005KT 9999 NSW FEW050 =
SR / SS: 05:08 / 17:19 UTC (Niederstetten 2020-09-22)